Search for airport 
image banner adimage banner adimage banner ad
image banner ad

5CA3 - San Rafel Private

Located in San Rafel, United States

ICAO - 5CA3, IATA -

Data provided by Airmate  

General information

Coordinates: N37°56'50" W122°29'17"
Elevation is 5 feet MSL.
Magnetic variation is 16° East
View others Airports in California

Operational data

Special qualification required
Current time UTC:
Current local time:
Weather at : KDVO - Gnoss Field ( 23 km )
METAR: KDVO 221315Z AUTO 36004KT 10SM OVC022 16/13 A2992 RMK AO2
View NOTAMs / SUP AIP / TFR affecting this airport [VIEW]
Communications frequencies: [VIEW]

Runways:

Airport contact information

Address: San Rafel United States

Satellite view of 5CA3